Temp: 9.8°C   Baro: 991.2mb
  Wind: 0.9mph   Dir: ESE (106°)
  Rain: 3.6mm (0.0mm/hr)
  Solar: 0W/m2  Hum: 89%
 
Bath Spa Weather Station Historical Data
Daily Summary for August 30, 2019 Units:  Both    English   Metric
Daily Weekly Monthly Yearly Custom
  High: Low: Average:
Temperature: 52.5 °F /  11.4 °C 44.4 °F /  6.9 °C 48.3 °F /  9.1 °C
Dew Point: 43.5 °F /  6.4 °C 40.5 °F /  4.7 °C 42.2 °F /  5.7 °C
Humidity: 91% 67% 80%
Wind Speed: 9.4mph /  15.1km/h - 4.6mph /  7.4km/h
Wind Gust: 19mph /  30.6km/h - -
Wind- - ESE
Pressure: 30.24 in /  1023.9 hPa 30.10 in /  1019.2 hPa -
Precipitation: 0.10 in /  2.54 mm    
Historical Graphs
 
 
Tabular Data for August 30, 2019
Time Temperature Dew Point Pressure Wind Wind Speed Wind Gust Humidity Rainfall Rate (Hourly) solar
00:04 47.3 °F /  8.5 °C 42.1 °F /  5.6 °C 30.24in /  1023.9hPa East 4.8mph /  7.7km/h 13mph /  20.9km/h 82% 0.00in /  0mm 0 W/m2
00:09 47.4 °F /  8.6 °C 42.2 °F /  5.7 °C 30.24in /  1023.9hPa East 5.5mph /  8.9km/h 18mph /  29km/h 82% 0.00in /  0mm 0 W/m2
00:14 47.4 °F /  8.6 °C 42.2 °F /  5.7 °C 30.24in /  1023.9hPa East 4.5mph /  7.2km/h 10mph /  16.1km/h 82% 0.00in /  0mm 0 W/m2
00:19 47.3 °F /  8.5 °C 42.1 °F /  5.6 °C 30.24in /  1023.9hPa East 4.8mph /  7.7km/h 11mph /  17.7km/h 82% 0.00in /  0mm 0 W/m2
00:24 47.4 °F /  8.6 °C 42.2 °F /  5.7 °C 30.24in /  1023.9hPa ENE 3.1mph /  5km/h 11mph /  17.7km/h 82% 0.00in /  0mm 0 W/m2
00:29 47.4 °F /  8.6 °C 42.2 °F /  5.7 °C 30.24in /  1023.9hPa ENE 4.2mph /  6.8km/h 13mph /  20.9km/h 82% 0.00in /  0mm 0 W/m2
00:34 47.4 °F /  8.6 °C 42.2 °F /  5.7 °C 30.24in /  1023.9hPa East 4.6mph /  7.4km/h 11mph /  17.7km/h 82% 0.00in /  0mm 0 W/m2
00:39 47.5 °F /  8.6 °C 42.3 °F /  5.7 °C 30.24in /  1023.9hPa East 4.2mph /  6.8km/h 13mph /  20.9km/h 82% 0.00in /  0mm 0 W/m2
00:44 47.5 °F /  8.6 °C 42.3 °F /  5.7 °C 30.24in /  1023.9hPa East 2.2mph /  3.5km/h 11mph /  17.7km/h 82% 0.00in /  0mm 0 W/m2
00:49 47.5 °F /  8.6 °C 42.3 °F /  5.7 °C 30.24in /  1023.9hPa East 3.6mph /  5.8km/h 10mph /  16.1km/h 82% 0.00in /  0mm 0 W/m2
00:54 47.4 °F /  8.6 °C 42.2 °F /  5.7 °C 30.24in /  1023.9hPa East 2.4mph /  3.9km/h 10mph /  16.1km/h 82% 0.00in /  0mm 0 W/m2
00:59 47.3 °F /  8.5 °C 42.1 °F /  5.6 °C 30.24in /  1023.9hPa East 4.2mph /  6.8km/h 10mph /  16.1km/h 82% 0.00in /  0mm 0 W/m2
01:04 47.2 °F /  8.4 °C 42 °F /  5.6 °C 30.24in /  1023.9hPa East 4.5mph /  7.2km/h 10mph /  16.1km/h 82% 0.00in /  0mm 0 W/m2
01:09 47.1 °F /  8.4 °C 41.9 °F /  5.5 °C 30.24in /  1023.9hPa East 4.7mph /  7.6km/h 10mph /  16.1km/h 82% 0.00in /  0mm 0 W/m2
01:14 47.1 °F /  8.4 °C 41.9 °F /  5.5 °C 30.24in /  1023.9hPa East 4.7mph /  7.6km/h 11mph /  17.7km/h 82% 0.00in /  0mm 0 W/m2
01:19 47.1 °F /  8.4 °C 41.9 °F /  5.5 °C 30.23in /  1023.6hPa East 5.4mph /  8.7km/h 11mph /  17.7km/h 82% 0.00in /  0mm 0 W/m2
01:24 47.1 °F /  8.4 °C 41.9 °F /  5.5 °C 30.23in /  1023.6hPa ESE 2.4mph /  3.9km/h 9mph /  14.5km/h 82% 0.00in /  0mm 0 W/m2
01:29 47.1 °F /  8.4 °C 41.9 °F /  5.5 °C 30.23in /  1023.6hPa East 4.2mph /  6.8km/h 11mph /  17.7km/h 82% 0.00in /  0mm 0 W/m2
01:34 47 °F /  8.3 °C 41.8 °F /  5.4 °C 30.23in /  1023.6hPa East 3.9mph /  6.3km/h 10mph /  16.1km/h 82% 0.00in /  0mm 0 W/m2
01:39 46.9 °F /  8.3 °C 41.7 °F /  5.4 °C 30.24in /  1023.9hPa East 4.4mph /  7.1km/h 10mph /  16.1km/h 82% 0.00in /  0mm 0 W/m2
01:44 46.9 °F /  8.3 °C 41.7 °F /  5.4 °C 30.23in /  1023.6hPa East 4.3mph /  6.9km/h 14mph /  22.5km/h 82% 0.00in /  0mm 0 W/m2
01:49 46.9 °F /  8.3 °C 41.7 °F /  5.4 °C 30.23in /  1023.6hPa East 5.5mph /  8.9km/h 14mph /  22.5km/h 82% 0.00in /  0mm 0 W/m2
01:54 46.9 °F /  8.3 °C 41.7 °F /  5.4 °C 30.23in /  1023.6hPa East 4.2mph /  6.8km/h 10mph /  16.1km/h 82% 0.00in /  0mm 0 W/m2
01:59 46.9 °F /  8.3 °C 41.7 °F /  5.4 °C 30.23in /  1023.6hPa East 2.9mph /  4.7km/h 10mph /  16.1km/h 82% 0.00in /  0mm 0 W/m2
02:04 46.9 °F /  8.3 °C 41.7 °F /  5.4 °C 30.23in /  1023.6hPa East 2.7mph /  4.3km/h 10mph /  16.1km/h 82% 0.00in /  0mm 0 W/m2
02:09 46.8 °F /  8.2 °C 41.6 °F /  5.3 °C 30.23in /  1023.6hPa East 2.9mph /  4.7km/h 10mph /  16.1km/h 82.2% 0.00in /  0mm 0 W/m2
02:14 46.8 °F /  8.2 °C 41.9 °F /  5.5 °C 30.23in /  1023.6hPa ENE 3.4mph /  5.5km/h 10mph /  16.1km/h 83% 0.00in /  0mm 0 W/m2
02:19 46.8 °F /  8.2 °C 41.9 °F /  5.5 °C 30.22in /  1023.2hPa East 4.1mph /  6.6km/h 10mph /  16.1km/h 83% 0.00in /  0mm 0 W/m2
02:24 46.8 °F /  8.2 °C 41.9 °F /  5.5 °C 30.22in /  1023.2hPa East 4.3mph /  6.9km/h 11mph /  17.7km/h 83% 0.00in /  0mm 0 W/m2
02:29 46.6 °F /  8.1 °C 41.7 °F /  5.4 °C 30.22in /  1023.2hPa East 5mph /  8km/h 13mph /  20.9km/h 83% 0.00in /  0mm 0 W/m2
02:34 46.6 °F /  8.1 °C 41.7 °F /  5.4 °C 30.22in /  1023.2hPa East 3.8mph /  6.1km/h 13mph /  20.9km/h 83% 0.00in /  0mm 0 W/m2
02:39 46.6 °F /  8.1 °C 41.7 °F /  5.4 °C 30.22in /  1023.2hPa East 4.9mph /  7.9km/h 9mph /  14.5km/h 83% 0.00in /  0mm 0 W/m2
02:44 46.5 °F /  8.1 °C 41.6 °F /  5.3 °C 30.22in /  1023.2hPa ESE 3.7mph /  6km/h 11mph /  17.7km/h 83% 0.00in /  0mm 0 W/m2
02:49 46.4 °F /  8 °C 41.5 °F /  5.3 °C 30.22in /  1023.2hPa East 3.9mph /  6.3km/h 11mph /  17.7km/h 83% 0.00in /  0mm 0 W/m2
02:54 46.2 °F /  7.9 °C 41.4 °F /  5.2 °C 30.22in /  1023.2hPa ESE 4.9mph /  7.9km/h 11mph /  17.7km/h 83% 0.00in /  0mm 0 W/m2
02:59 46.2 °F /  7.9 °C 41.4 °F /  5.2 °C 30.22in /  1023.2hPa ESE 5.1mph /  8.2km/h 11mph /  17.7km/h 83% 0.00in /  0mm 0 W/m2
03:04 46.2 °F /  7.9 °C 41.6 °F /  5.3 °C 30.22in /  1023.2hPa East 2.4mph /  3.9km/h 11mph /  17.7km/h 83.6% 0.00in /  0mm 0 W/m2
03:09 46 °F /  7.8 °C 41.5 °F /  5.3 °C 30.22in /  1023.2hPa ESE 3.9mph /  6.3km/h 10mph /  16.1km/h 84% 0.00in /  0mm 0 W/m2
03:14 46 °F /  7.8 °C 41.5 °F /  5.3 °C 30.22in /  1023.2hPa East 3.2mph /  5.1km/h 10mph /  16.1km/h 84% 0.00in /  0mm 0 W/m2
03:19 46 °F /  7.8 °C 41.5 °F /  5.3 °C 30.22in /  1023.2hPa East 2.3mph /  3.7km/h 7mph /  11.3km/h 84% 0.00in /  0mm 0 W/m2
03:24 46 °F /  7.8 °C 41.5 °F /  5.3 °C 30.22in /  1023.2hPa East 2.1mph /  3.4km/h 7mph /  11.3km/h 84% 0.00in /  0mm 0 W/m2
03:29 46 °F /  7.8 °C 41.5 °F /  5.3 °C 30.22in /  1023.2hPa East 3.9mph /  6.3km/h 9mph /  14.5km/h 84% 0.00in /  0mm 0 W/m2
03:34 46 °F /  7.8 °C 41.5 °F /  5.3 °C 30.21in /  1022.9hPa East 2.1mph /  3.4km/h 9mph /  14.5km/h 84% 0.00in /  0mm 0 W/m2
03:39 46 °F /  7.8 °C 41.5 °F /  5.3 °C 30.21in /  1022.9hPa East 4.7mph /  7.6km/h 11mph /  17.7km/h 84% 0.00in /  0mm 0 W/m2
03:44 46 °F /  7.8 °C 41.5 °F /  5.3 °C 30.21in /  1022.9hPa ENE 3.3mph /  5.3km/h 10mph /  16.1km/h 84% 0.00in /  0mm 0 W/m2
03:49 46 °F /  7.8 °C 41.5 °F /  5.3 °C 30.22in /  1023.2hPa ENE 4.3mph /  6.9km/h 10mph /  16.1km/h 84% 0.00in /  0mm 0 W/m2
03:54 46 °F /  7.8 °C 41.5 °F /  5.3 °C 30.22in /  1023.2hPa East 4.4mph /  7.1km/h 13mph /  20.9km/h 84% 0.00in /  0mm 0 W/m2
03:59 46.1 °F /  7.8 °C 41.6 °F /  5.3 °C 30.22in /  1023.2hPa ENE 3.4mph /  5.5km/h 10mph /  16.1km/h 84% 0.00in /  0mm 0 W/m2
04:04 46.2 °F /  7.9 °C 41.7 °F /  5.4 °C 30.22in /  1023.2hPa East 3.2mph /  5.1km/h 10mph /  16.1km/h 84% 0.00in /  0mm 0 W/m2
04:09 46.2 °F /  7.9 °C 41.7 °F /  5.4 °C 30.21in /  1022.9hPa East 2.7mph /  4.3km/h 9mph /  14.5km/h 84% 0.00in /  0mm 0 W/m2
04:14 46 °F /  7.8 °C 41.5 °F /  5.3 °C 30.22in /  1023.2hPa ENE 3.6mph /  5.8km/h 12mph /  19.3km/h 84% 0.00in /  0mm 0 W/m2
04:19 46.1 °F /  7.8 °C 41.6 °F /  5.3 °C 30.22in /  1023.2hPa East 4mph /  6.4km/h 12mph /  19.3km/h 84% 0.00in /  0mm 0 W/m2
04:24 46.1 °F /  7.8 °C 41.6 °F /  5.3 °C 30.22in /  1023.2hPa East 3.7mph /  6km/h 13mph /  20.9km/h 84% 0.00in /  0mm 0 W/m2
04:29 46.1 °F /  7.8 °C 41.6 °F /  5.3 °C 30.22in /  1023.2hPa East 4.6mph /  7.4km/h 13mph /  20.9km/h 84% 0.00in /  0mm 0 W/m2
04:34 46.1 °F /  7.8 °C 41.6 °F /  5.3 °C 30.21in /  1022.9hPa East 3mph /  4.8km/h 13mph /  20.9km/h 84% 0.00in /  0mm 0 W/m2
04:39 46 °F /  7.8 °C 41.5 °F /  5.3 °C 30.21in /  1022.9hPa ENE 2.8mph /  4.5km/h 13mph /  20.9km/h 84% 0.00in /  0mm 0 W/m2
04:44 46 °F /  7.8 °C 41.5 °F /  5.3 °C 30.21in /  1022.9hPa East 3.4mph /  5.5km/h 8mph /  12.9km/h 84% 0.00in /  0mm 0 W/m2
04:49 46 °F /  7.8 °C 41.5 °F /  5.3 °C 30.21in /  1022.9hPa ENE 3.7mph /  6km/h 9mph /  14.5km/h 84% 0.00in /  0mm 0 W/m2
04:54 46 °F /  7.8 °C 41.5 °F /  5.3 °C 30.21in /  1022.9hPa East 3.7mph /  6km/h 10mph /  16.1km/h 84% 0.00in /  0mm 0 W/m2
04:59 45.9 °F /  7.7 °C 41.4 °F /  5.2 °C 30.21in /  1022.9hPa ENE 4.1mph /  6.6km/h 10mph /  16.1km/h 84% 0.00in /  0mm 0 W/m2
05:04 46 °F /  7.8 °C 41.5 °F /  5.3 °C 30.21in /  1022.9hPa ENE 3.2mph /  5.1km/h 9mph /  14.5km/h 84% 0.00in /  0mm 0 W/m2
05:09 45.9 °F /  7.7 °C 41.4 °F /  5.2 °C 30.21in /  1022.9hPa East 3mph /  4.8km/h 7mph /  11.3km/h 84% 0.00in /  0mm 0 W/m2
05:14 45.9 °F /  7.7 °C 41.4 °F /  5.2 °C 30.21in /  1022.9hPa ENE 2.7mph /  4.3km/h 8mph /  12.9km/h 84% 0.00in /  0mm 0 W/m2
05:19 45.9 °F /  7.7 °C 41.4 °F /  5.2 °C 30.21in /  1022.9hPa East 3.9mph /  6.3km/h 11mph /  17.7km/h 84% 0.00in /  0mm 0 W/m2
05:24 46 °F /  7.8 °C 41.5 °F /  5.3 °C 30.21in /  1022.9hPa East 4mph /  6.4km/h 11mph /  17.7km/h 84% 0.00in /  0mm 0 W/m2
05:29 46 °F /  7.8 °C 41.5 °F /  5.3 °C 30.21in /  1022.9hPa East 3mph /  4.8km/h 11mph /  17.7km/h 84% 0.00in /  0mm 0 W/m2
05:34 46 °F /  7.8 °C 41.5 °F /  5.3 °C 30.21in /  1022.9hPa ESE 3.1mph /  5km/h 10mph /  16.1km/h 84% 0.00in /  0mm 0 W/m2
05:39 46 °F /  7.8 °C 41.5 °F /  5.3 °C 30.21in /  1022.9hPa East 4.3mph /  6.9km/h 11mph /  17.7km/h 84% 0.00in /  0mm 0 W/m2
05:44 46 °F /  7.8 °C 41.5 °F /  5.3 °C 30.21in /  1022.9hPa East 3mph /  4.8km/h 11mph /  17.7km/h 84% 0.00in /  0mm 0 W/m2
05:49 46 °F /  7.8 °C 41.5 °F /  5.3 °C 30.21in /  1022.9hPa ESE 2.7mph /  4.3km/h 11mph /  17.7km/h 84% 0.00in /  0mm 0 W/m2
05:54 45.9 °F /  7.7 °C 41.4 °F /  5.2 °C 30.21in /  1022.9hPa East 2.6mph /  4.2km/h 8mph /  12.9km/h 84% 0.00in /  0mm 0 W/m2
05:59 45.9 °F /  7.7 °C 41.4 °F /  5.2 °C 30.20in /  1022.6hPa East 2.3mph /  3.7km/h 8mph /  12.9km/h 84% 0.00in /  0mm 0 W/m2
06:04 45.9 °F /  7.7 °C 41.5 °F /  5.3 °C 30.21in /  1022.9hPa East 2.7mph /  4.3km/h 10mph /  16.1km/h 85% 0.00in /  0mm 0 W/m2
06:09 45.9 °F /  7.7 °C 41.5 °F /  5.3 °C 30.21in /  1022.9hPa ENE 2.5mph /  4km/h 7mph /  11.3km/h 85% 0.00in /  0mm 0 W/m2
06:14 45.9 °F /  7.7 °C 41.5 °F /  5.3 °C 30.21in /  1022.9hPa East 2.1mph /  3.4km/h 11mph /  17.7km/h 85% 0.00in /  0mm 0 W/m2
06:19 45.9 °F /  7.7 °C 41.5 °F /  5.3 °C 30.21in /  1022.9hPa East 2.7mph /  4.3km/h 9mph /  14.5km/h 85% 0.00in /  0mm 0 W/m2
06:24 45.8 °F /  7.7 °C 41.4 °F /  5.2 °C 30.21in /  1022.9hPa East 3.1mph /  5km/h 12mph /  19.3km/h 85% 0.00in /  0mm 0 W/m2
06:29 45.7 °F /  7.6 °C 41.4 °F /  5.2 °C 30.21in /  1022.9hPa ENE 3.6mph /  5.8km/h 12mph /  19.3km/h 85% 0.00in /  0mm 0 W/m2
06:34 45.7 °F /  7.6 °C 41.4 °F /  5.2 °C 30.21in /  1022.9hPa East 3.3mph /  5.3km/h 12mph /  19.3km/h 85% 0.00in /  0mm 0 W/m2
06:39 45.7 °F /  7.6 °C 41.4 °F /  5.2 °C 30.21in /  1022.9hPa East 3.3mph /  5.3km/h 10mph /  16.1km/h 85% 0.00in /  0mm 0 W/m2
06:44 45.6 °F /  7.6 °C 41.3 °F /  5.2 °C 30.21in /  1022.9hPa East 3.9mph /  6.3km/h 10mph /  16.1km/h 85% 0.00in /  0mm 0 W/m2
06:49 45.5 °F /  7.5 °C 41.2 °F /  5.1 °C 30.21in /  1022.9hPa ENE 3.9mph /  6.3km/h 10mph /  16.1km/h 85% 0.00in /  0mm 0 W/m2
06:54 45.4 °F /  7.4 °C 41.1 °F /  5.1 °C 30.21in /  1022.9hPa ESE 3.3mph /  5.3km/h 9mph /  14.5km/h 85% 0.00in /  0mm 0 W/m2
06:59 45.3 °F /  7.4 °C 41 °F /  5 °C 30.21in /  1022.9hPa East 4.4mph /  7.1km/h 11mph /  17.7km/h 85% 0.00in /  0mm 0 W/m2
07:04 45.3 °F /  7.4 °C 41 °F /  5 °C 30.22in /  1023.2hPa East 2.8mph /  4.5km/h 9mph /  14.5km/h 85% 0.00in /  0mm 0 W/m2
07:09 45.2 °F /  7.3 °C 40.9 °F /  4.9 °C 30.22in /  1023.2hPa ESE 3.7mph /  6km/h 9mph /  14.5km/h 85% 0.00in /  0mm 7 W/m2
07:14 45.1 °F /  7.3 °C 40.8 °F /  4.9 °C 30.22in /  1023.2hPa East 3.4mph /  5.5km/h 9mph /  14.5km/h 85% 0.00in /  0mm 9 W/m2
07:19 45.1 °F /  7.3 °C 40.7 °F /  4.8 °C 30.21in /  1022.9hPa East 2.9mph /  4.7km/h 9mph /  14.5km/h 85% 0.00in /  0mm 11 W/m2
07:24 45 °F /  7.2 °C 40.6 °F /  4.8 °C 30.21in /  1022.9hPa East 4.4mph /  7.1km/h 14mph /  22.5km/h 85.1% 0.00in /  0mm 14 W/m2
07:29 44.8 °F /  7.1 °C 40.8 °F /  4.9 °C 30.22in /  1023.2hPa East 3.2mph /  5.1km/h 13mph /  20.9km/h 86% 0.00in /  0mm 19 W/m2
07:34 44.8 °F /  7.1 °C 40.8 °F /  4.9 °C 30.22in /  1023.2hPa ENE 4.2mph /  6.8km/h 10mph /  16.1km/h 86% 0.00in /  0mm 25 W/m2
07:39 44.7 °F /  7.1 °C 40.7 °F /  4.8 °C 30.22in /  1023.2hPa East 4.8mph /  7.7km/h 11mph /  17.7km/h 86% 0.00in /  0mm 30 W/m2
07:44 44.5 °F /  6.9 °C 40.5 °F /  4.7 °C 30.21in /  1022.9hPa East 5.5mph /  8.9km/h 12mph /  19.3km/h 86% 0.00in /  0mm 32 W/m2
07:49 44.4 °F /  6.9 °C 40.5 °F /  4.7 °C 30.22in /  1023.2hPa East 4.6mph /  7.4km/h 12mph /  19.3km/h 86% 0.00in /  0mm 37 W/m2
07:54 44.5 °F /  6.9 °C 40.6 °F /  4.8 °C 30.22in /  1023.2hPa East 5.2mph /  8.4km/h 11mph /  17.7km/h 86% 0.00in /  0mm 40 W/m2
07:59 44.6 °F /  7 °C 40.6 °F /  4.8 °C 30.22in /  1023.2hPa ESE 3.7mph /  6km/h 11mph /  17.7km/h 86% 0.00in /  0mm 47 W/m2
08:04 44.6 °F /  7 °C 40.6 °F /  4.8 °C 30.22in /  1023.2hPa East 2.9mph /  4.7km/h 8mph /  12.9km/h 86% 0.00in /  0mm 53 W/m2
08:09 44.5 °F /  6.9 °C 40.5 °F /  4.7 °C 30.22in /  1023.2hPa East 2.9mph /  4.7km/h 9mph /  14.5km/h 86% 0.00in /  0mm 56 W/m2
08:14 44.6 °F /  7 °C 40.6 °F /  4.8 °C 30.22in /  1023.2hPa East 4.7mph /  7.6km/h 12mph /  19.3km/h 86% 0.00in /  0mm 62 W/m2
08:19 44.7 °F /  7.1 °C 40.7 °F /  4.8 °C 30.22in /  1023.2hPa East 2.8mph /  4.5km/h 11mph /  17.7km/h 86% 0.00in /  0mm 69 W/m2
08:24 44.8 °F /  7.1 °C 40.8 °F /  4.9 °C 30.22in /  1023.2hPa East 4.1mph /  6.6km/h 11mph /  17.7km/h 86% 0.00in /  0mm 79 W/m2
08:29 44.9 °F /  7.2 °C 40.9 °F /  4.9 °C 30.22in /  1023.2hPa ESE 2.5mph /  4km/h 11mph /  17.7km/h 86% 0.00in /  0mm 86 W/m2
08:34 45 °F /  7.2 °C 41 °F /  5 °C 30.22in /  1023.2hPa East 2.6mph /  4.2km/h 7mph /  11.3km/h 86% 0.00in /  0mm 86 W/m2
08:39 45.1 °F /  7.3 °C 41.2 °F /  5.1 °C 30.22in /  1023.2hPa East 3.1mph /  5km/h 11mph /  17.7km/h 86% 0.00in /  0mm 84 W/m2
08:44 45.1 °F /  7.3 °C 41.2 °F /  5.1 °C 30.22in /  1023.2hPa East 3.1mph /  5km/h 12mph /  19.3km/h 86% 0.00in /  0mm 88 W/m2
08:49 45.3 °F /  7.4 °C 41.4 °F /  5.2 °C 30.22in /  1023.2hPa East 2.6mph /  4.2km/h 10mph /  16.1km/h 86% 0.00in /  0mm 93 W/m2
08:54 45.4 °F /  7.4 °C 41.3 °F /  5.2 °C 30.22in /  1023.2hPa East 4.1mph /  6.6km/h 9mph /  14.5km/h 85.7% 0.00in /  0mm 100 W/m2
08:59 45.6 °F /  7.6 °C 41.3 °F /  5.2 °C 30.22in /  1023.2hPa ESE 5.2mph /  8.4km/h 11mph /  17.7km/h 85% 0.00in /  0mm 107 W/m2
09:04 45.7 °F /  7.6 °C 41.4 °F /  5.2 °C 30.22in /  1023.2hPa East 2.8mph /  4.5km/h 11mph /  17.7km/h 85% 0.00in /  0mm 116 W/m2
09:09 45.9 °F /  7.7 °C 41.5 °F /  5.3 °C 30.22in /  1023.2hPa ESE 4.7mph /  7.6km/h 12mph /  19.3km/h 85% 0.00in /  0mm 127 W/m2
09:14 46.1 °F /  7.8 °C 41.8 °F /  5.4 °C 30.22in /  1023.2hPa East 3.1mph /  5km/h 14mph /  22.5km/h 85% 0.00in /  0mm 137 W/m2
09:19 46.3 °F /  7.9 °C 41.8 °F /  5.4 °C 30.21in /  1022.9hPa East 3.8mph /  6.1km/h 10mph /  16.1km/h 84.1% 0.00in /  0mm 134 W/m2
09:24 46.6 °F /  8.1 °C 42.1 °F /  5.6 °C 30.21in /  1022.9hPa East 4.9mph /  7.9km/h 13mph /  20.9km/h 84% 0.00in /  0mm 146 W/m2
09:29 46.7 °F /  8.2 °C 42.2 °F /  5.7 °C 30.22in /  1023.2hPa East 3.6mph /  5.8km/h 13mph /  20.9km/h 84% 0.00in /  0mm 146 W/m2
09:34 46.8 °F /  8.2 °C 42.3 °F /  5.7 °C 30.22in /  1023.2hPa East 4.7mph /  7.6km/h 11mph /  17.7km/h 83.8% 0.00in /  0mm 139 W/m2
09:39 46.9 °F /  8.3 °C 42.1 °F /  5.6 °C 30.22in /  1023.2hPa East 2.9mph /  4.7km/h 8mph /  12.9km/h 83% 0.00in /  0mm 134 W/m2
09:44 47 °F /  8.3 °C 42.2 °F /  5.7 °C 30.22in /  1023.2hPa East 3.6mph /  5.8km/h 9mph /  14.5km/h 83% 0.00in /  0mm 130 W/m2
09:49 47.3 °F /  8.5 °C 42.4 °F /  5.8 °C 30.22in /  1023.2hPa East 3.2mph /  5.1km/h 11mph /  17.7km/h 83% 0.00in /  0mm 127 W/m2
09:54 47.5 °F /  8.6 °C 42.6 °F /  5.9 °C 30.22in /  1023.2hPa ENE 6.2mph /  10km/h 17mph /  27.4km/h 83% 0.00in /  0mm 153 W/m2
09:59 47.5 °F /  8.6 °C 42.5 °F /  5.8 °C 30.22in /  1023.2hPa East 4.7mph /  7.6km/h 12mph /  19.3km/h 82.5% 0.00in /  0mm 174 W/m2
10:04 47.7 °F /  8.7 °C 42.4 °F /  5.8 °C 30.21in /  1022.9hPa East 3.4mph /  5.5km/h 10mph /  16.1km/h 82% 0.00in /  0mm 174 W/m2
10:09 47.8 °F /  8.8 °C 42.6 °F /  5.9 °C 30.21in /  1022.9hPa East 4.1mph /  6.6km/h 13mph /  20.9km/h 82% 0.00in /  0mm 162 W/m2
10:14 48 °F /  8.9 °C 42.8 °F /  6 °C 30.21in /  1022.9hPa East 5.4mph /  8.7km/h 12mph /  19.3km/h 82% 0.00in /  0mm 149 W/m2
10:19 48.1 °F /  8.9 °C 42.9 °F /  6.1 °C 30.21in /  1022.9hPa East 4.7mph /  7.6km/h 10mph /  16.1km/h 82% 0.00in /  0mm 132 W/m2
10:24 48.3 °F /  9.1 °C 43.1 °F /  6.2 °C 30.21in /  1022.9hPa East 3.9mph /  6.3km/h 10mph /  16.1km/h 81.8% 0.00in /  0mm 162 W/m2
10:29 48.5 °F /  9.2 °C 43.1 °F /  6.2 °C 30.21in /  1022.9hPa East 3.4mph /  5.5km/h 10mph /  16.1km/h 81.4% 0.00in /  0mm 167 W/m2
10:34 48.7 °F /  9.3 °C 43.2 °F /  6.2 °C 30.21in /  1022.9hPa East 4.1mph /  6.6km/h 10mph /  16.1km/h 81% 0.00in /  0mm 169 W/m2
10:39 49 °F /  9.4 °C 43.4 °F /  6.3 °C 30.21in /  1022.9hPa ESE 3mph /  4.8km/h 9mph /  14.5km/h 81% 0.00in /  0mm 176 W/m2
10:44 49.4 °F /  9.7 °C 43.5 °F /  6.4 °C 30.21in /  1022.9hPa ESE 4mph /  6.4km/h 10mph /  16.1km/h 80.3% 0.00in /  0mm 181 W/m2
10:49 49.6 °F /  9.8 °C 43.5 °F /  6.4 °C 30.21in /  1022.9hPa East 5.4mph /  8.7km/h 12mph /  19.3km/h 79.7% 0.00in /  0mm 181 W/m2
10:54 50 °F /  10 °C 43.4 °F /  6.3 °C 30.21in /  1022.9hPa East 3.4mph /  5.5km/h 12mph /  19.3km/h 78.4% 0.00in /  0mm 186 W/m2
10:59 50.4 °F /  10.2 °C 43.4 °F /  6.3 °C 30.21in /  1022.9hPa ESE 3.5mph /  5.6km/h 11mph /  17.7km/h 76.9% 0.00in /  0mm 188 W/m2
11:04 50.6 °F /  10.3 °C 42.9 °F /  6.1 °C 30.21in /  1022.9hPa SE 6.2mph /  10km/h 16mph /  25.7km/h 74.5% 0.00in /  0mm 207 W/m2
11:09 51 °F /  10.6 °C 42.7 °F /  5.9 °C 30.21in /  1022.9hPa ESE 5.9mph /  9.5km/h 13mph /  20.9km/h 73% 0.00in /  0mm 213 W/m2
11:14 51.3 °F /  10.7 °C 42.6 °F /  5.9 °C 30.21in /  1022.9hPa ESE 6.7mph /  10.8km/h 15mph /  24.1km/h 71.8% 0.00in /  0mm 214 W/m2
11:19 51.4 °F /  10.8 °C 42.4 °F /  5.8 °C 30.20in /  1022.6hPa ESE 7.7mph /  12.4km/h 15mph /  24.1km/h 71% 0.00in /  0mm 202 W/m2
11:24 51.4 °F /  10.8 °C 42.4 °F /  5.8 °C 30.20in /  1022.6hPa ESE 7mph /  11.3km/h 18mph /  29km/h 71% 0.00in /  0mm 192 W/m2
11:29 51.4 °F /  10.8 °C 42.3 °F /  5.7 °C 30.20in /  1022.6hPa ESE 7.6mph /  12.2km/h 16mph /  25.7km/h 70.8% 0.00in /  0mm 193 W/m2
11:34 51.4 °F /  10.8 °C 42.2 °F /  5.7 °C 30.19in /  1022.2hPa ESE 6.1mph /  9.8km/h 15mph /  24.1km/h 70.7% 0.00in /  0mm 192 W/m2
11:39 51.4 °F /  10.8 °C 42.3 °F /  5.7 °C 30.19in /  1022.2hPa ESE 6mph /  9.7km/h 15mph /  24.1km/h 70.8% 0.00in /  0mm 181 W/m2
11:44 51.4 °F /  10.8 °C 42.4 °F /  5.8 °C 30.19in /  1022.2hPa ESE 5.9mph /  9.5km/h 14mph /  22.5km/h 71% 0.00in /  0mm 171 W/m2
11:49 51.4 °F /  10.8 °C 42.4 °F /  5.8 °C 30.19in /  1022.2hPa SE 6.7mph /  10.8km/h 16mph /  25.7km/h 71% 0.00in /  0mm 167 W/m2
11:54 51.3 °F /  10.7 °C 42.3 °F /  5.7 °C 30.19in /  1022.2hPa ESE 9.4mph /  15.1km/h 18mph /  29km/h 71% 0.00in /  0mm 172 W/m2
11:59 51.3 °F /  10.7 °C 42.3 °F /  5.7 °C 30.19in /  1022.2hPa SE 5.3mph /  8.5km/h 18mph /  29km/h 71% 0.00in /  0mm 172 W/m2
12:04 51.3 °F /  10.7 °C 42.3 °F /  5.7 °C 30.19in /  1022.2hPa ESE 7.9mph /  12.7km/h 18mph /  29km/h 71% 0.00in /  0mm 160 W/m2
12:09 51.4 °F /  10.8 °C 42.4 °F /  5.8 °C 30.19in /  1022.2hPa SE 5.9mph /  9.5km/h 12mph /  19.3km/h 71% 0.00in /  0mm 146 W/m2
12:14 51.4 °F /  10.8 °C 42.4 °F /  5.8 °C 30.19in /  1022.2hPa ESE 8.1mph /  13km/h 18mph /  29km/h 71% 0.00in /  0mm 132 W/m2
12:19 51.4 °F /  10.8 °C 42.4 °F /  5.8 °C 30.18in /  1021.9hPa SE 5.8mph /  9.3km/h 18mph /  29km/h 71% 0.00in /  0mm 149 W/m2
12:24 51.4 °F /  10.8 °C 42.4 °F /  5.8 °C 30.18in /  1021.9hPa ESE 8.6mph /  13.8km/h 16mph /  25.7km/h 71% 0.00in /  0mm 151 W/m2
12:29 51.4 °F /  10.8 °C 42.4 °F /  5.8 °C 30.18in /  1021.9hPa ESE 8.5mph /  13.7km/h 19mph /  30.6km/h 71% 0.00in /  0mm 149 W/m2
12:34 51.5 °F /  10.8 °C 42.4 °F /  5.8 °C 30.18in /  1021.9hPa SE 6.4mph /  10.3km/h 19mph /  30.6km/h 71% 0.00in /  0mm 148 W/m2
12:39 51.6 °F /  10.9 °C 42.4 °F /  5.8 °C 30.18in /  1021.9hPa SE 7.3mph /  11.7km/h 15mph /  24.1km/h 71% 0.00in /  0mm 148 W/m2
12:44 51.6 °F /  10.9 °C 42.4 °F /  5.8 °C 30.17in /  1021.6hPa ESE 6.8mph /  10.9km/h 16mph /  25.7km/h 71% 0.00in /  0mm 146 W/m2
12:49 51.7 °F /  10.9 °C 42.4 °F /  5.8 °C 30.17in /  1021.6hPa ESE 6.6mph /  10.6km/h 15mph /  24.1km/h 70.4% 0.00in /  0mm 130 W/m2
12:54 51.8 °F /  11 °C 42.3 °F /  5.7 °C 30.17in /  1021.6hPa ESE 8.9mph /  14.3km/h 16mph /  25.7km/h 70% 0.00in /  0mm 121 W/m2
12:59 51.8 °F /  11 °C 42.3 °F /  5.7 °C 30.17in /  1021.6hPa SE 6.4mph /  10.3km/h 16mph /  25.7km/h 70% 0.00in /  0mm 113 W/m2
13:04 52 °F /  11.1 °C 42.4 °F /  5.8 °C 30.17in /  1021.6hPa ESE 6.1mph /  9.8km/h 14mph /  22.5km/h 70% 0.00in /  0mm 113 W/m2
13:09 52 °F /  11.1 °C 42.4 °F /  5.8 °C 30.17in /  1021.6hPa SE 3.7mph /  6km/h 8mph /  12.9km/h 70% 0.00in /  0mm 109 W/m2
13:14 52 °F /  11.1 °C 42.4 °F /  5.8 °C 30.17in /  1021.6hPa ESE 5.6mph /  9km/h 15mph /  24.1km/h 70% 0.00in /  0mm 105 W/m2
13:19 52.1 °F /  11.2 °C 42.4 °F /  5.8 °C 30.17in /  1021.6hPa ESE 4.5mph /  7.2km/h 13mph /  20.9km/h 69.7% 0.00in /  0mm 109 W/m2
13:24 52.2 °F /  11.2 °C 42.5 °F /  5.8 °C 30.16in /  1021.2hPa SE 4.2mph /  6.8km/h 13mph /  20.9km/h 69.5% 0.00in /  0mm 116 W/m2
13:29 52.2 °F /  11.2 °C 42.3 °F /  5.7 °C 30.16in /  1021.2hPa SE 4.5mph /  7.2km/h 12mph /  19.3km/h 69% 0.00in /  0mm 123 W/m2
13:34 52.2 °F /  11.2 °C 42.3 °F /  5.7 °C 30.16in /  1021.2hPa ESE 5mph /  8km/h 12mph /  19.3km/h 69% 0.00in /  0mm 128 W/m2
13:39 52.3 °F /  11.3 °C 42.3 °F /  5.7 °C 30.16in /  1021.2hPa ESE 4.8mph /  7.7km/h 12mph /  19.3km/h 68.7% 0.00in /  0mm 134 W/m2
13:44 52.3 °F /  11.3 °C 42.1 °F /  5.6 °C 30.16in /  1021.2hPa SE 3.3mph /  5.3km/h 10mph /  16.1km/h 68% 0.00in /  0mm 134 W/m2
13:49 52.4 °F /  11.3 °C 42.2 °F /  5.7 °C 30.16in /  1021.2hPa SE 4.9mph /  7.9km/h 11mph /  17.7km/h 68.2% 0.00in /  0mm 130 W/m2
13:54 52.5 °F /  11.4 °C 42.3 °F /  5.7 °C 30.16in /  1021.2hPa ESE 3.6mph /  5.8km/h 11mph /  17.7km/h 68% 0.00in /  0mm 118 W/m2
13:59 52.5 °F /  11.4 °C 42.3 °F /  5.7 °C 30.16in /  1021.2hPa ESE 3.1mph /  5km/h 9mph /  14.5km/h 68.2% 0.00in /  0mm 105 W/m2
14:04 52.5 °F /  11.4 °C 42.3 °F /  5.7 °C 30.16in /  1021.2hPa ESE 5.2mph /  8.4km/h 14mph /  22.5km/h 68% 0.00in /  0mm 95 W/m2
14:09 52.5 °F /  11.4 °C 42.3 °F /  5.7 °C 30.16in /  1021.2hPa SE 4.6mph /  7.4km/h 12mph /  19.3km/h 68% 0.00in /  0mm 79 W/m2
14:14 52.5 °F /  11.4 °C 41.9 °F /  5.5 °C 30.16in /  1021.2hPa SE 4.7mph /  7.6km/h 12mph /  19.3km/h 67% 0.00in /  0mm 67 W/m2
14:19 52.5 °F /  11.4 °C 42 °F /  5.6 °C 30.16in /  1021.2hPa ESE 6.4mph /  10.3km/h 14mph /  22.5km/h 67.3% 0.00in /  0mm 54 W/m2
14:24 52.4 °F /  11.3 °C 41.8 °F /  5.4 °C 30.16in /  1021.2hPa ESE 5.3mph /  8.5km/h 10mph /  16.1km/h 67% 0.00in /  0mm 53 W/m2
14:29 52.3 °F /  11.3 °C 41.7 °F /  5.4 °C 30.15in /  1020.9hPa ESE 4.5mph /  7.2km/h 10mph /  16.1km/h 67% 0.00in /  0mm 58 W/m2
14:34 52.3 °F /  11.3 °C 41.7 °F /  5.4 °C 30.15in /  1020.9hPa ESE 5.5mph /  8.9km/h 14mph /  22.5km/h 67% 0.00in /  0mm 65 W/m2
14:39 52.3 °F /  11.3 °C 41.7 °F /  5.4 °C 30.15in /  1020.9hPa ESE 5.1mph /  8.2km/h 14mph /  22.5km/h 67% 0.00in /  0mm 70 W/m2
14:44 52.3 °F /  11.3 °C 41.7 °F /  5.4 °C 30.15in /  1020.9hPa ESE 4.8mph /  7.7km/h 12mph /  19.3km/h 67.1% 0.00in /  0mm 77 W/m2
14:49 52.3 °F /  11.3 °C 42 °F /  5.6 °C 30.15in /  1020.9hPa SE 7.1mph /  11.4km/h 15mph /  24.1km/h 67.7% 0.00in /  0mm 77 W/m2
14:54 52.3 °F /  11.3 °C 42.6 °F /  5.9 °C 30.15in /  1020.9hPa ESE 7.2mph /  11.6km/h 18mph /  29km/h 69.5% 0.00in /  0mm 74 W/m2
14:59 52.3 °F /  11.3 °C 43.2 °F /  6.2 °C 30.15in /  1020.9hPa ESE 6.4mph /  10.3km/h 14mph /  22.5km/h 70.9% 0.00in /  0mm 63 W/m2
15:04 52.4 °F /  11.3 °C 43.3 °F /  6.3 °C 30.15in /  1020.9hPa ESE 7.2mph /  11.6km/h 18mph /  29km/h 71% 0.00in /  0mm 62 W/m2
15:09 52.4 °F /  11.3 °C 43.3 °F /  6.3 °C 30.14in /  1020.5hPa ESE 7.1mph /  11.4km/h 13mph /  20.9km/h 71% 0.00in /  0mm 65 W/m2
15:14 52.4 °F /  11.3 °C 43.3 °F /  6.3 °C 30.14in /  1020.5hPa ESE 4.6mph /  7.4km/h 14mph /  22.5km/h 71% 0.00in /  0mm 63 W/m2
15:19 52.3 °F /  11.3 °C 43.2 °F /  6.2 °C 30.14in /  1020.5hPa ESE 5mph /  8km/h 14mph /  22.5km/h 71% 0.00in /  0mm 58 W/m2
15:24 52.3 °F /  11.3 °C 43.2 °F /  6.2 °C 30.14in /  1020.5hPa ESE 8.1mph /  13km/h 13mph /  20.9km/h 71% 0.00in /  0mm 53 W/m2
15:29 52.3 °F /  11.3 °C 43.2 °F /  6.2 °C 30.14in /  1020.5hPa ESE 7.5mph /  12.1km/h 14mph /  22.5km/h 71% 0.00in /  0mm 51 W/m2
15:34 52.3 °F /  11.3 °C 43.3 °F /  6.3 °C 30.14in /  1020.5hPa East 5.1mph /  8.2km/h 14mph /  22.5km/h 71.2% 0.00in /  0mm 47 W/m2
15:39 52.3 °F /  11.3 °C 43.5 °F /  6.4 °C 30.14in /  1020.5hPa ESE 5mph /  8km/h 14mph /  22.5km/h 72% 0.00in /  0mm 44 W/m2
15:44 52.3 °F /  11.3 °C 43.5 °F /  6.4 °C 30.14in /  1020.5hPa ESE 4.5mph /  7.2km/h 11mph /  17.7km/h 72% 0.00in /  0mm 40 W/m2
15:49 52.3 °F /  11.3 °C 43.5 °F /  6.4 °C 30.14in /  1020.5hPa SE 5.5mph /  8.9km/h 13mph /  20.9km/h 72% 0.00in /  0mm 33 W/m2
15:54 52.2 °F /  11.2 °C 43.3 °F /  6.3 °C 30.14in /  1020.5hPa ESE 4.2mph /  6.8km/h 13mph /  20.9km/h 72% 0.00in /  0mm 25 W/m2
15:59 52.2 °F /  11.2 °C 43.3 °F /  6.3 °C 30.14in /  1020.5hPa ESE 5.5mph /  8.9km/h 14mph /  22.5km/h 72% 0.00in /  0mm 19 W/m2
16:04 52.2 °F /  11.2 °C 43.3 °F /  6.3 °C 30.13in /  1020.2hPa ESE 6mph /  9.7km/h 16mph /  25.7km/h 72% 0.00in /  0mm 18 W/m2
16:09 52.2 °F /  11.2 °C 43.3 °F /  6.3 °C 30.14in /  1020.5hPa ESE 4.3mph /  6.9km/h 10mph /  16.1km/h 72% 0.00in /  0mm 16 W/m2
16:14 52.2 °F /  11.2 °C 43.3 °F /  6.3 °C 30.14in /  1020.5hPa ESE 4.5mph /  7.2km/h 12mph /  19.3km/h 72% 0.00in /  0mm 14 W/m2
16:19 52.1 °F /  11.2 °C 43.2 °F /  6.2 °C 30.13in /  1020.2hPa ESE 4.7mph /  7.6km/h 11mph /  17.7km/h 72% 0.00in /  0mm 11 W/m2
16:24 52 °F /  11.1 °C 43.2 °F /  6.2 °C 30.13in /  1020.2hPa ESE 4.2mph /  6.8km/h 11mph /  17.7km/h 72% 0.00in /  0mm 9 W/m2
16:29 52 °F /  11.1 °C 43.2 °F /  6.2 °C 30.13in /  1020.2hPa ESE 3mph /  4.8km/h 8mph /  12.9km/h 72% 0.00in /  0mm 9 W/m2
16:34 51.9 °F /  11.1 °C 43.1 °F /  6.2 °C 30.13in /  1020.2hPa ESE 2mph /  3.2km/h 8mph /  12.9km/h 72% 0.00in /  0mm 7 W/m2
16:39 51.8 °F /  11 °C 43.3 °F /  6.3 °C 30.13in /  1020.2hPa ESE 4.9mph /  7.9km/h 14mph /  22.5km/h 72.9% 0.00in /  0mm 5 W/m2
16:44 51.7 °F /  10.9 °C 43 °F /  6.1 °C 30.13in /  1020.2hPa ESE 5.5mph /  8.9km/h 12mph /  19.3km/h 72% 0.00in /  0mm 0 W/m2
16:49 51.7 °F /  10.9 °C 43.2 °F /  6.2 °C 30.13in /  1020.2hPa ESE 3.2mph /  5.1km/h 11mph /  17.7km/h 72.7% 0.00in /  0mm 0 W/m2
16:54 51.6 °F /  10.9 °C 43.3 °F /  6.3 °C 30.13in /  1020.2hPa ESE 4.5mph /  7.2km/h 12mph /  19.3km/h 73% 0.00in /  0mm 0 W/m2
16:59 51.4 °F /  10.8 °C 43.2 °F /  6.2 °C 30.13in /  1020.2hPa ESE 5mph /  8km/h 11mph /  17.7km/h 73% 0.00in /  0mm 0 W/m2
17:04 51.4 °F /  10.8 °C 43.2 °F /  6.2 °C 30.13in /  1020.2hPa ESE 5.2mph /  8.4km/h 12mph /  19.3km/h 73% 0.00in /  0mm 0 W/m2
17:09 51.4 °F /  10.8 °C 43 °F /  6.1 °C 30.13in /  1020.2hPa ESE 4.8mph /  7.7km/h 9mph /  14.5km/h 72.6% 0.00in /  0mm 0 W/m2
17:14 51.4 °F /  10.8 °C 42.9 °F /  6.1 °C 30.13in /  1020.2hPa East 3.1mph /  5km/h 8mph /  12.9km/h 72.2% 0.00in /  0mm 0 W/m2
17:19 51.3 °F /  10.7 °C 42.7 °F /  5.9 °C 30.13in /  1020.2hPa ESE 5.3mph /  8.5km/h 12mph /  19.3km/h 72.3% 0.00in /  0mm 0 W/m2
17:24 51.3 °F /  10.7 °C 42.6 °F /  5.9 °C 30.13in /  1020.2hPa ESE 5.1mph /  8.2km/h 11mph /  17.7km/h 72% 0.00in /  0mm 0 W/m2
17:29 51.3 °F /  10.7 °C 42.6 °F /  5.9 °C 30.13in /  1020.2hPa ESE 4mph /  6.4km/h 11mph /  17.7km/h 72% 0.00in /  0mm 0 W/m2
17:34 51.3 °F /  10.7 °C 42.6 °F /  5.9 °C 30.13in /  1020.2hPa ESE 2.7mph /  4.3km/h 10mph /  16.1km/h 72% 0.00in /  0mm 0 W/m2
17:39 51.3 °F /  10.7 °C 42.8 °F /  6 °C 30.13in /  1020.2hPa East 4.2mph /  6.8km/h 8mph /  12.9km/h 72.4% 0.00in /  0mm 0 W/m2
17:44 51.3 °F /  10.7 °C 43 °F /  6.1 °C 30.14in /  1020.5hPa ESE 3.7mph /  6km/h 10mph /  16.1km/h 73% 0.00in /  0mm 0 W/m2
17:49 51.3 °F /  10.7 °C 43 °F /  6.1 °C 30.13in /  1020.2hPa ESE 4.1mph /  6.6km/h 15mph /  24.1km/h 73% 0.00in /  0mm 0 W/m2
17:54 51.1 °F /  10.6 °C 42.8 °F /  6 °C 30.13in /  1020.2hPa ESE 3.6mph /  5.8km/h 9mph /  14.5km/h 73% 0.00in /  0mm 0 W/m2
17:59 51.1 °F /  10.6 °C 42.8 °F /  6 °C 30.14in /  1020.5hPa ESE 5.5mph /  8.9km/h 10mph /  16.1km/h 73% 0.00in /  0mm 0 W/m2
18:04 51 °F /  10.6 °C 42.9 °F /  6.1 °C 30.13in /  1020.2hPa ESE 3.2mph /  5.1km/h 8mph /  12.9km/h 73.5% 0.00in /  0mm 0 W/m2
18:09 50.8 °F /  10.4 °C 42.9 °F /  6.1 °C 30.13in /  1020.2hPa ESE 3.6mph /  5.8km/h 10mph /  16.1km/h 74% 0.00in /  0mm 0 W/m2
18:14 50.7 °F /  10.4 °C 42.8 °F /  6 °C 30.13in /  1020.2hPa ESE 2.4mph /  3.9km/h 8mph /  12.9km/h 74% 0.00in /  0mm 0 W/m2
18:19 50.7 °F /  10.4 °C 42.9 °F /  6.1 °C 30.13in /  1020.2hPa ESE 3mph /  4.8km/h 7mph /  11.3km/h 74.2% 0.00in /  0mm 0 W/m2
18:24 50.5 °F /  10.3 °C 43 °F /  6.1 °C 30.14in /  1020.5hPa ESE 4mph /  6.4km/h 10mph /  16.1km/h 75% 0.00in /  0mm 0 W/m2
18:29 50.4 °F /  10.2 °C 42.8 °F /  6 °C 30.13in /  1020.2hPa ESE 5.3mph /  8.5km/h 14mph /  22.5km/h 75% 0.00in /  0mm 0 W/m2
18:34 50.3 °F /  10.2 °C 42.7 °F /  5.9 °C 30.13in /  1020.2hPa ESE 3.8mph /  6.1km/h 14mph /  22.5km/h 75% 0.00in /  0mm 0 W/m2
18:39 50.1 °F /  10.1 °C 42.5 °F /  5.8 °C 30.13in /  1020.2hPa ESE 6.4mph /  10.3km/h 13mph /  20.9km/h 75% 0.00in /  0mm 0 W/m2
18:44 49.9 °F /  9.9 °C 42.4 °F /  5.8 °C 30.13in /  1020.2hPa ESE 4.8mph /  7.7km/h 15mph /  24.1km/h 75% 0.00in /  0mm 0 W/m2
18:49 49.8 °F /  9.9 °C 42.5 °F /  5.8 °C 30.13in /  1020.2hPa ESE 4.4mph /  7.1km/h 10mph /  16.1km/h 75.8% 0.00in /  0mm 0 W/m2
18:54 49.6 °F /  9.8 °C 42.4 °F /  5.8 °C 30.13in /  1020.2hPa ESE 5.5mph /  8.9km/h 12mph /  19.3km/h 76% 0.00in /  0mm 0 W/m2
18:59 49.5 °F /  9.7 °C 42.3 °F /  5.7 °C 30.13in /  1020.2hPa East 6mph /  9.7km/h 13mph /  20.9km/h 76% 0.00in /  0mm 0 W/m2
19:04 49.5 °F /  9.7 °C 42.3 °F /  5.7 °C 30.13in /  1020.2hPa ESE 4.3mph /  6.9km/h 10mph /  16.1km/h 76% 0.00in /  0mm 0 W/m2
19:09 49.3 °F /  9.6 °C 42.1 °F /  5.6 °C 30.13in /  1020.2hPa East 6.2mph /  10km/h 12mph /  19.3km/h 76% 0.00in /  0mm 0 W/m2
19:14 49.1 °F /  9.5 °C 41.9 °F /  5.5 °C 30.12in /  1019.9hPa ESE 4.7mph /  7.6km/h 15mph /  24.1km/h 76% 0.00in /  0mm 0 W/m2
19:19 48.9 °F /  9.4 °C 41.7 °F /  5.4 °C 30.12in /  1019.9hPa ESE 3.9mph /  6.3km/h 15mph /  24.1km/h 76% 0.00in /  0mm 0 W/m2
19:24 48.8 °F /  9.3 °C 41.6 °F /  5.3 °C 30.12in /  1019.9hPa East 4.2mph /  6.8km/h 14mph /  22.5km/h 76% 0.00in /  0mm 0 W/m2
19:29 48.7 °F /  9.3 °C 41.5 °F /  5.3 °C 30.12in /  1019.9hPa ESE 5.1mph /  8.2km/h 14mph /  22.5km/h 76% 0.00in /  0mm 0 W/m2
19:34 48.7 °F /  9.3 °C 41.7 °F /  5.4 °C 30.13in /  1020.2hPa ESE 5.3mph /  8.5km/h 11mph /  17.7km/h 76.6% 0.00in /  0mm 0 W/m2
19:39 48.6 °F /  9.2 °C 41.7 °F /  5.4 °C 30.13in /  1020.2hPa ESE 3.4mph /  5.5km/h 10mph /  16.1km/h 77% 0.00in /  0mm 0 W/m2
19:44 48.6 °F /  9.2 °C 41.7 °F /  5.4 °C 30.13in /  1020.2hPa ESE 5.7mph /  9.2km/h 13mph /  20.9km/h 77% 0.00in /  0mm 0 W/m2
19:49 48.4 °F /  9.1 °C 41.5 °F /  5.3 °C 30.13in /  1020.2hPa ESE 3.9mph /  6.3km/h 12mph /  19.3km/h 77% 0.00in /  0mm 0 W/m2
19:54 48.4 °F /  9.1 °C 41.5 °F /  5.3 °C 30.13in /  1020.2hPa East 4.2mph /  6.8km/h 12mph /  19.3km/h 77% 0.00in /  0mm 0 W/m2
19:59 48.3 °F /  9.1 °C 41.4 °F /  5.2 °C 30.13in /  1020.2hPa ESE 4.8mph /  7.7km/h 11mph /  17.7km/h 77% 0.00in /  0mm 0 W/m2
20:04 48.1 °F /  8.9 °C 41.3 °F /  5.2 °C 30.13in /  1020.2hPa ESE 6.7mph /  10.8km/h 13mph /  20.9km/h 77% 0.01in /  0.25mm 0 W/m2
20:09 48 °F /  8.9 °C 41.5 °F /  5.3 °C 30.13in /  1020.2hPa ESE 4.1mph /  6.6km/h 13mph /  20.9km/h 77.9% 0.01in /  0.25mm 0 W/m2
20:14 47.8 °F /  8.8 °C 41.5 °F /  5.3 °C 30.13in /  1020.2hPa East 7.8mph /  12.6km/h 15mph /  24.1km/h 78.2% 0.01in /  0.25mm 0 W/m2
20:19 47.7 °F /  8.7 °C 41.6 °F /  5.3 °C 30.13in /  1020.2hPa ESE 6.3mph /  10.1km/h 15mph /  24.1km/h 79.2% 0.01in /  0.25mm 0 W/m2
20:24 47.6 °F /  8.7 °C 41.6 °F /  5.3 °C 30.12in /  1019.9hPa ESE 5.9mph /  9.5km/h 11mph /  17.7km/h 80% 0.01in /  0.25mm 0 W/m2
20:29 47.5 °F /  8.6 °C 41.8 °F /  5.4 °C 30.12in /  1019.9hPa ESE 5.6mph /  9km/h 12mph /  19.3km/h 80.8% 0.01in /  0.25mm 0 W/m2
20:34 47.3 °F /  8.5 °C 41.8 °F /  5.4 °C 30.12in /  1019.9hPa ESE 5.6mph /  9km/h 17mph /  27.4km/h 81.4% 0.01in /  0.25mm 0 W/m2
20:39 47.1 °F /  8.4 °C 41.9 °F /  5.5 °C 30.12in /  1019.9hPa East 8.8mph /  14.2km/h 17mph /  27.4km/h 82% 0.02in /  0.51mm 0 W/m2
20:44 47 °F /  8.3 °C 42.1 °F /  5.6 °C 30.12in /  1019.9hPa East 5.2mph /  8.4km/h 17mph /  27.4km/h 82.7% 0.02in /  0.51mm 0 W/m2
20:49 46.9 °F /  8.3 °C 42.1 °F /  5.6 °C 30.12in /  1019.9hPa East 6.3mph /  10.1km/h 16mph /  25.7km/h 83% 0.02in /  0.51mm 0 W/m2
20:54 46.9 °F /  8.3 °C 42.3 °F /  5.7 °C 30.12in /  1019.9hPa ESE 6.1mph /  9.8km/h 16mph /  25.7km/h 83.7% 0.02in /  0.51mm 0 W/m2
20:59 46.8 °F /  8.2 °C 42.3 °F /  5.7 °C 30.12in /  1019.9hPa ESE 6.5mph /  10.5km/h 16mph /  25.7km/h 84% 0.02in /  0.51mm 0 W/m2
21:04 46.8 °F /  8.2 °C 42.3 °F /  5.7 °C 30.12in /  1019.9hPa ESE 7.7mph /  12.4km/h 16mph /  25.7km/h 84% 0.02in /  0.51mm 0 W/m2
21:09 46.8 °F /  8.2 °C 42.4 °F /  5.8 °C 30.12in /  1019.9hPa East 5.2mph /  8.4km/h 12mph /  19.3km/h 84.9% 0.02in /  0.51mm 0 W/m2
21:14 46.8 °F /  8.2 °C 42.4 °F /  5.8 °C 30.12in /  1019.9hPa ESE 4.4mph /  7.1km/h 10mph /  16.1km/h 85% 0.02in /  0.51mm 0 W/m2
21:19 46.6 °F /  8.1 °C 42.3 °F /  5.7 °C 30.12in /  1019.9hPa ESE 7.5mph /  12.1km/h 16mph /  25.7km/h 85% 0.02in /  0.51mm 0 W/m2
21:24 46.6 °F /  8.1 °C 42.5 °F /  5.8 °C 30.11in /  1019.5hPa ESE 6.5mph /  10.5km/h 17mph /  27.4km/h 85.5% 0.02in /  0.51mm 0 W/m2
21:29 46.6 °F /  8.1 °C 42.6 °F /  5.9 °C 30.11in /  1019.5hPa East 4.5mph /  7.2km/h 12mph /  19.3km/h 86% 0.02in /  0.51mm 0 W/m2
21:34 46.6 °F /  8.1 °C 42.6 °F /  5.9 °C 30.11in /  1019.5hPa ESE 5.5mph /  8.9km/h 13mph /  20.9km/h 86% 0.03in /  0.76mm 0 W/m2
21:39 46.5 °F /  8.1 °C 42.8 °F /  6 °C 30.11in /  1019.5hPa ESE 4.7mph /  7.6km/h 11mph /  17.7km/h 86.7% 0.03in /  0.76mm 0 W/m2
21:44 46.4 °F /  8 °C 42.8 °F /  6 °C 30.11in /  1019.5hPa ESE 5.1mph /  8.2km/h 12mph /  19.3km/h 87% 0.02in /  0.51mm 0 W/m2
21:49 46.3 °F /  7.9 °C 42.7 °F /  5.9 °C 30.11in /  1019.5hPa East 6mph /  9.7km/h 12mph /  19.3km/h 87% 0.02in /  0.51mm 0 W/m2
21:54 46.2 °F /  7.9 °C 42.6 °F /  5.9 °C 30.11in /  1019.5hPa ESE 5.4mph /  8.7km/h 14mph /  22.5km/h 87% 0.03in /  0.76mm 0 W/m2
21:59 46.3 °F /  7.9 °C 42.9 °F /  6.1 °C 30.11in /  1019.5hPa East 5.4mph /  8.7km/h 14mph /  22.5km/h 88% 0.03in /  0.76mm 0 W/m2
22:04 46.2 °F /  7.9 °C 42.8 °F /  6 °C 30.11in /  1019.5hPa ESE 4.8mph /  7.7km/h 12mph /  19.3km/h 88% 0.02in /  0.51mm 0 W/m2
22:09 46.2 °F /  7.9 °C 42.8 °F /  6 °C 30.11in /  1019.5hPa East 5.8mph /  9.3km/h 14mph /  22.5km/h 88% 0.02in /  0.51mm 0 W/m2
22:14 46.2 °F /  7.9 °C 42.8 °F /  6 °C 30.11in /  1019.5hPa ESE 4.4mph /  7.1km/h 15mph /  24.1km/h 88% 0.03in /  0.76mm 0 W/m2
22:19 46.2 °F /  7.9 °C 42.8 °F /  6 °C 30.11in /  1019.5hPa ESE 4.8mph /  7.7km/h 11mph /  17.7km/h 88% 0.03in /  0.76mm 0 W/m2
22:24 46.2 °F /  7.9 °C 43.2 °F /  6.2 °C 30.11in /  1019.5hPa ESE 6.1mph /  9.8km/h 16mph /  25.7km/h 89% 0.03in /  0.76mm 0 W/m2
22:29 46.2 °F /  7.9 °C 43.2 °F /  6.2 °C 30.11in /  1019.5hPa ESE 4.3mph /  6.9km/h 16mph /  25.7km/h 89% 0.03in /  0.76mm 0 W/m2
22:34 46.2 °F /  7.9 °C 43.2 °F /  6.2 °C 30.10in /  1019.2hPa ESE 4mph /  6.4km/h 14mph /  22.5km/h 89% 0.03in /  0.76mm 0 W/m2
22:39 46.2 °F /  7.9 °C 43.2 °F /  6.2 °C 30.10in /  1019.2hPa ESE 6.1mph /  9.8km/h 14mph /  22.5km/h 89% 0.02in /  0.51mm 0 W/m2
22:44 46.2 °F /  7.9 °C 43.2 °F /  6.2 °C 30.10in /  1019.2hPa ESE 5.3mph /  8.5km/h 14mph /  22.5km/h 89.1% 0.03in /  0.76mm 0 W/m2
22:49 46.2 °F /  7.9 °C 43.5 °F /  6.4 °C 30.10in /  1019.2hPa ESE 5.7mph /  9.2km/h 14mph /  22.5km/h 90% 0.03in /  0.76mm 0 W/m2
22:54 46.2 °F /  7.9 °C 43.5 °F /  6.4 °C 30.10in /  1019.2hPa East 4.5mph /  7.2km/h 14mph /  22.5km/h 90% 0.03in /  0.76mm 0 W/m2
22:59 46.2 °F /  7.9 °C 43.5 °F /  6.4 °C 30.10in /  1019.2hPa ESE 4mph /  6.4km/h 8mph /  12.9km/h 90% 0.02in /  0.51mm 0 W/m2
23:04 46.1 °F /  7.8 °C 43.4 °F /  6.3 °C 30.10in /  1019.2hPa ESE 4.3mph /  6.9km/h 9mph /  14.5km/h 90% 0.03in /  0.76mm 0 W/m2
23:09 46 °F /  7.8 °C 43.3 °F /  6.3 °C 30.10in /  1019.2hPa ESE 4.9mph /  7.9km/h 13mph /  20.9km/h 90% 0.03in /  0.76mm 0 W/m2
23:14 46 °F /  7.8 °C 43.3 °F /  6.3 °C 30.10in /  1019.2hPa ESE 3.5mph /  5.6km/h 9mph /  14.5km/h 90% 0.03in /  0.76mm 0 W/m2
23:19 46 °F /  7.8 °C 43.3 °F /  6.3 °C 30.10in /  1019.2hPa ESE 3.8mph /  6.1km/h 10mph /  16.1km/h 90% 0.03in /  0.76mm 0 W/m2
23:24 46 °F /  7.8 °C 43.4 °F /  6.3 °C 30.10in /  1019.2hPa ESE 4.6mph /  7.4km/h 12mph /  19.3km/h 90.4% 0.03in /  0.76mm 0 W/m2
23:29 46 °F /  7.8 °C 43.5 °F /  6.4 °C 30.10in /  1019.2hPa ESE 3.2mph /  5.1km/h 7mph /  11.3km/h 91% 0.02in /  0.51mm 0 W/m2
23:34 46 °F /  7.8 °C 43.5 °F /  6.4 °C 30.10in /  1019.2hPa East 5.1mph /  8.2km/h 13mph /  20.9km/h 91% 0.03in /  0.76mm 0 W/m2
23:39 46 °F /  7.8 °C 43.5 °F /  6.4 °C 30.10in /  1019.2hPa ESE 3.9mph /  6.3km/h 10mph /  16.1km/h 91% 0.03in /  0.76mm 0 W/m2
23:44 46 °F /  7.8 °C 43.5 °F /  6.4 °C 30.10in /  1019.2hPa East 4.4mph /  7.1km/h 10mph /  16.1km/h 91% 0.03in /  0.76mm 0 W/m2
23:49 46 °F /  7.8 °C 43.5 °F /  6.4 °C 30.10in /  1019.2hPa East 2.2mph /  3.5km/h 10mph /  16.1km/h 91% 0.03in /  0.76mm 0 W/m2
23:54 46 °F /  7.8 °C 43.5 °F /  6.4 °C 30.10in /  1019.2hPa East 3.6mph /  5.8km/h 12mph /  19.3km/h 91% 0.03in /  0.76mm 0 W/m2
23:59 46 °F /  7.8 °C 43.5 °F /  6.4 °C 30.10in /  1019.2hPa East 3.8mph /  6.1km/h 11mph /  17.7km/h 91% 0.03in /  0.76mm 0 W/m2
Bath Spa Weather
Compliments of Weather Underground - 2 mb